sensor_id;sensor_type;location;lat;lon;timestamp;temperature;humidity
18868;DHT22;9563;49.240;9.088;2022-08-19T00:01:20;20.90;99.90
18868;DHT22;9563;49.240;9.088;2022-08-19T00:03:48;20.80;99.90
18868;DHT22;9563;49.240;9.088;2022-08-19T00:06:15;20.80;99.90
18868;DHT22;9563;49.240;9.088;2022-08-19T00:08:43;20.90;99.90
18868;DHT22;9563;49.240;9.088;2022-08-19T00:11:10;20.90;99.90
18868;DHT22;9563;49.240;9.088;2022-08-19T00:13:38;20.90;99.90
18868;DHT22;9563;49.240;9.088;2022-08-19T00:16:07;20.90;99.90
18868;DHT22;9563;49.240;9.088;2022-08-19T00:18:34;20.90;99.90
18868;DHT22;9563;49.240;9.088;2022-08-19T00:21:01;21.00;99.90
18868;DHT22;9563;49.240;9.088;2022-08-19T00:23:32;20.90;99.90
18868;DHT22;9563;49.240;9.088;2022-08-19T00:26:00;20.90;99.90
18868;DHT22;9563;49.240;9.088;2022-08-19T00:28:27;20.90;99.90
18868;DHT22;9563;49.240;9.088;2022-08-19T00:30:54;20.90;99.90
18868;DHT22;9563;49.240;9.088;2022-08-19T00:33:22;20.90;99.90
18868;DHT22;9563;49.240;9.088;2022-08-19T00:35:49;20.90;99.90
18868;DHT22;9563;49.240;9.088;2022-08-19T00:38:16;20.90;99.90
18868;DHT22;9563;49.240;9.088;2022-08-19T00:40:43;20.90;99.90
18868;DHT22;9563;49.240;9.088;2022-08-19T00:43:12;20.90;99.90
18868;DHT22;9563;49.240;9.088;2022-08-19T00:45:40;20.90;99.90
18868;DHT22;9563;49.240;9.088;2022-08-19T00:48:09;20.80;99.90
18868;DHT22;9563;49.240;9.088;2022-08-19T00:50:39;20.80;99.90
18868;DHT22;9563;49.240;9.088;2022-08-19T00:53:10;20.70;99.90
18868;DHT22;9563;49.240;9.088;2022-08-19T00:55:37;20.70;99.90
18868;DHT22;9563;49.240;9.088;2022-08-19T00:58:08;20.60;99.90
18868;DHT22;9563;49.240;9.088;2022-08-19T01:00:36;20.60;99.90
18868;DHT22;9563;49.240;9.088;2022-08-19T01:03:05;20.60;99.90
18868;DHT22;9563;49.240;9.088;2022-08-19T01:05:32;20.60;99.90
18868;DHT22;9563;49.240;9.088;2022-08-19T01:08:03;20.50;99.90
18868;DHT22;9563;49.240;9.088;2022-08-19T01:10:33;20.60;99.90
18868;DHT22;9563;49.240;9.088;2022-08-19T01:13:03;20.60;99.90
18868;DHT22;9563;49.240;9.088;2022-08-19T01:15:32;20.60;99.90
18868;DHT22;9563;49.240;9.088;2022-08-19T01:18:02;20.60;99.90
18868;DHT22;9563;49.240;9.088;2022-08-19T01:20:30;20.60;99.90
18868;DHT22;9563;49.240;9.088;2022-08-19T01:23:00;20.60;99.90
18868;DHT22;9563;49.240;9.088;2022-08-19T01:25:31;20.60;99.90
18868;DHT22;9563;49.240;9.088;2022-08-19T01:27:59;20.60;99.90
18868;DHT22;9563;49.240;9.088;2022-08-19T01:30:28;20.60;99.90
18868;DHT22;9563;49.240;9.088;2022-08-19T01:32:57;20.60;99.90
18868;DHT22;9563;49.240;9.088;2022-08-19T01:35:26;20.70;99.90
18868;DHT22;9563;49.240;9.088;2022-08-19T01:37:56;20.70;99.90
18868;DHT22;9563;49.240;9.088;2022-08-19T01:40:30;20.70;99.90
18868;DHT22;9563;49.240;9.088;2022-08-19T01:42:57;20.70;99.90
18868;DHT22;9563;49.240;9.088;2022-08-19T01:45:27;20.70;99.90
18868;DHT22;9563;49.240;9.088;2022-08-19T01:47:55;20.70;99.90
18868;DHT22;9563;49.240;9.088;2022-08-19T01:50:22;20.60;99.90
18868;DHT22;9563;49.240;9.088;2022-08-19T01:52:49;20.60;99.90
18868;DHT22;9563;49.240;9.088;2022-08-19T01:55:21;20.60;99.90
18868;DHT22;9563;49.240;9.088;2022-08-19T01:57:58;20.60;99.90
18868;DHT22;9563;49.240;9.088;2022-08-19T02:00:28;20.50;99.90
18868;DHT22;9563;49.240;9.088;2022-08-19T02:02:56;20.50;99.90
18868;DHT22;9563;49.240;9.088;2022-08-19T02:05:23;20.60;99.90
18868;DHT22;9563;49.240;9.088;2022-08-19T02:07:50;20.50;99.90
18868;DHT22;9563;49.240;9.088;2022-08-19T02:10:20;20.50;99.90
18868;DHT22;9563;49.240;9.088;2022-08-19T02:12:49;20.50;99.90
18868;DHT22;9563;49.240;9.088;2022-08-19T02:15:18;20.50;99.90
18868;DHT22;9563;49.240;9.088;2022-08-19T02:17:46;20.60;99.90
18868;DHT22;9563;49.240;9.088;2022-08-19T02:20:14;20.60;99.90
18868;DHT22;9563;49.240;9.088;2022-08-19T02:22:41;20.60;99.90
18868;DHT22;9563;49.240;9.088;2022-08-19T02:25:09;20.60;99.90
18868;DHT22;9563;49.240;9.088;2022-08-19T02:27:36;20.60;99.90
18868;DHT22;9563;49.240;9.088;2022-08-19T02:30:08;20.60;99.90
18868;DHT22;9563;49.240;9.088;2022-08-19T02:32:35;20.60;99.90
18868;DHT22;9563;49.240;9.088;2022-08-19T02:35:03;20.60;99.90
18868;DHT22;9563;49.240;9.088;2022-08-19T02:37:30;20.50;99.90
18868;DHT22;9563;49.240;9.088;2022-08-19T02:40:14;20.60;99.90
18868;DHT22;9563;49.240;9.088;2022-08-19T02:42:43;20.60;99.90
18868;DHT22;9563;49.240;9.088;2022-08-19T02:45:12;20.60;99.90
18868;DHT22;9563;49.240;9.088;2022-08-19T02:47:39;20.50;99.90
18868;DHT22;9563;49.240;9.088;2022-08-19T02:50:07;20.60;99.90
18868;DHT22;9563;49.240;9.088;2022-08-19T02:52:34;20.60;99.90
18868;DHT22;9563;49.240;9.088;2022-08-19T02:55:02;20.60;99.90
18868;DHT22;9563;49.240;9.088;2022-08-19T02:57:30;20.50;99.90
18868;DHT22;9563;49.240;9.088;2022-08-19T02:59:58;20.50;99.90
18868;DHT22;9563;49.240;9.088;2022-08-19T03:02:27;20.40;99.90
18868;DHT22;9563;49.240;9.088;2022-08-19T03:04:54;20.40;99.90
18868;DHT22;9563;49.240;9.088;2022-08-19T03:07:21;20.40;99.90
18868;DHT22;9563;49.240;9.088;2022-08-19T03:09:48;20.50;99.90
18868;DHT22;9563;49.240;9.088;2022-08-19T03:12:15;20.50;99.90
18868;DHT22;9563;49.240;9.088;2022-08-19T03:14:42;20.40;99.90
18868;DHT22;9563;49.240;9.088;2022-08-19T03:17:09;20.40;99.90
18868;DHT22;9563;49.240;9.088;2022-08-19T03:19:37;20.40;99.90
18868;DHT22;9563;49.240;9.088;2022-08-19T03:22:05;20.40;99.90
18868;DHT22;9563;49.240;9.088;2022-08-19T03:24:31;20.40;99.90
18868;DHT22;9563;49.240;9.088;2022-08-19T03:26:58;20.30;99.90
18868;DHT22;9563;49.240;9.088;2022-08-19T03:29:27;20.30;99.90
18868;DHT22;9563;49.240;9.088;2022-08-19T03:31:55;20.30;99.90
18868;DHT22;9563;49.240;9.088;2022-08-19T03:34:25;20.30;99.90
18868;DHT22;9563;49.240;9.088;2022-08-19T03:36:54;20.30;99.90
18868;DHT22;9563;49.240;9.088;2022-08-19T03:39:23;20.30;99.90
18868;DHT22;9563;49.240;9.088;2022-08-19T03:41:51;20.20;99.90
18868;DHT22;9563;49.240;9.088;2022-08-19T03:44:22;20.20;99.90
18868;DHT22;9563;49.240;9.088;2022-08-19T03:46:54;20.20;99.90
18868;DHT22;9563;49.240;9.088;2022-08-19T03:49:23;20.20;99.90
18868;DHT22;9563;49.240;9.088;2022-08-19T03:51:50;20.20;99.90
18868;DHT22;9563;49.240;9.088;2022-08-19T03:54:21;20.20;99.90
18868;DHT22;9563;49.240;9.088;2022-08-19T03:56:51;20.20;99.90
18868;DHT22;9563;49.240;9.088;2022-08-19T03:59:21;20.20;99.90
18868;DHT22;9563;49.240;9.088;2022-08-19T04:01:51;20.20;99.90
18868;DHT22;9563;49.240;9.088;2022-08-19T04:04:18;20.10;99.90
18868;DHT22;9563;49.240;9.088;2022-08-19T04:06:46;20.10;99.90
18868;DHT22;9563;49.240;9.088;2022-08-19T04:09:14;20.10;99.90
18868;DHT22;9563;49.240;9.088;2022-08-19T04:11:44;20.10;99.90
18868;DHT22;9563;49.240;9.088;2022-08-19T04:14:14;20.10;99.90
18868;DHT22;9563;49.240;9.088;2022-08-19T04:16:42;20.10;99.90
18868;DHT22;9563;49.240;9.088;2022-08-19T04:19:10;20.10;99.90
18868;DHT22;9563;49.240;9.088;2022-08-19T04:21:37;20.10;99.90
18868;DHT22;9563;49.240;9.088;2022-08-19T04:24:04;20.10;99.90
18868;DHT22;9563;49.240;9.088;2022-08-19T04:26:35;20.10;99.90
18868;DHT22;9563;49.240;9.088;2022-08-19T04:29:08;20.10;99.90
18868;DHT22;9563;49.240;9.088;2022-08-19T04:31:35;20.10;99.90
18868;DHT22;9563;49.240;9.088;2022-08-19T04:34:04;20.10;99.90
18868;DHT22;9563;49.240;9.088;2022-08-19T04:36:33;20.10;99.90
18868;DHT22;9563;49.240;9.088;2022-08-19T04:39:04;20.10;99.90
18868;DHT22;9563;49.240;9.088;2022-08-19T04:41:32;20.10;99.90
18868;DHT22;9563;49.240;9.088;2022-08-19T04:44:18;20.10;99.90
18868;DHT22;9563;49.240;9.088;2022-08-19T04:46:45;20.10;99.90
18868;DHT22;9563;49.240;9.088;2022-08-19T04:49:13;20.10;99.90
18868;DHT22;9563;49.240;9.088;2022-08-19T04:51:42;20.10;99.90
18868;DHT22;9563;49.240;9.088;2022-08-19T04:54:10;20.20;99.90
18868;DHT22;9563;49.240;9.088;2022-08-19T04:56:39;20.20;99.90
18868;DHT22;9563;49.240;9.088;2022-08-19T04:59:06;20.20;99.90
18868;DHT22;9563;49.240;9.088;2022-08-19T05:01:35;20.20;99.90
18868;DHT22;9563;49.240;9.088;2022-08-19T05:04:04;20.20;99.90
18868;DHT22;9563;49.240;9.088;2022-08-19T05:06:32;20.20;99.90
18868;DHT22;9563;49.240;9.088;2022-08-19T05:09:00;20.20;99.90
18868;DHT22;9563;49.240;9.088;2022-08-19T05:11:29;20.20;99.90
18868;DHT22;9563;49.240;9.088;2022-08-19T05:13:57;20.20;99.90
18868;DHT22;9563;49.240;9.088;2022-08-19T05:16:25;20.20;99.90
18868;DHT22;9563;49.240;9.088;2022-08-19T05:18:54;20.20;99.90
18868;DHT22;9563;49.240;9.088;2022-08-19T05:21:40;20.20;99.90
18868;DHT22;9563;49.240;9.088;2022-08-19T05:24:25;20.20;99.90
18868;DHT22;9563;49.240;9.088;2022-08-19T05:26:53;20.20;99.90
18868;DHT22;9563;49.240;9.088;2022-08-19T05:29:24;20.20;99.90
18868;DHT22;9563;49.240;9.088;2022-08-19T05:31:52;20.20;99.90
18868;DHT22;9563;49.240;9.088;2022-08-19T05:34:22;20.20;99.90
18868;DHT22;9563;49.240;9.088;2022-08-19T05:36:51;20.30;99.90
18868;DHT22;9563;49.240;9.088;2022-08-19T05:39:23;20.30;99.90
18868;DHT22;9563;49.240;9.088;2022-08-19T05:41:54;20.30;99.90
18868;DHT22;9563;49.240;9.088;2022-08-19T05:44:24;20.40;99.90
18868;DHT22;9563;49.240;9.088;2022-08-19T05:46:52;20.40;99.90
18868;DHT22;9563;49.240;9.088;2022-08-19T05:49:22;20.40;99.90
18868;DHT22;9563;49.240;9.088;2022-08-19T05:51:51;20.50;99.90
18868;DHT22;9563;49.240;9.088;2022-08-19T05:54:18;20.50;99.90
18868;DHT22;9563;49.240;9.088;2022-08-19T05:56:45;20.50;99.90
18868;DHT22;9563;49.240;9.088;2022-08-19T05:59:14;20.60;99.90
18868;DHT22;9563;49.240;9.088;2022-08-19T06:01:44;20.60;99.90
18868;DHT22;9563;49.240;9.088;2022-08-19T06:04:12;20.60;99.90
18868;DHT22;9563;49.240;9.088;2022-08-19T06:06:41;20.60;99.90
18868;DHT22;9563;49.240;9.088;2022-08-19T06:09:08;20.60;99.90
18868;DHT22;9563;49.240;9.088;2022-08-19T06:11:39;20.70;99.90
18868;DHT22;9563;49.240;9.088;2022-08-19T06:14:09;20.70;99.90
18868;DHT22;9563;49.240;9.088;2022-08-19T06:16:38;20.70;99.90
18868;DHT22;9563;49.240;9.088;2022-08-19T06:19:08;20.70;99.90
18868;DHT22;9563;49.240;9.088;2022-08-19T06:21:37;20.80;99.90
18868;DHT22;9563;49.240;9.088;2022-08-19T06:24:07;20.80;99.90
18868;DHT22;9563;49.240;9.088;2022-08-19T06:26:35;20.70;99.90
18868;DHT22;9563;49.240;9.088;2022-08-19T06:29:04;20.80;99.90
18868;DHT22;9563;49.240;9.088;2022-08-19T06:31:32;20.80;99.90
18868;DHT22;9563;49.240;9.088;2022-08-19T06:34:00;20.90;99.90
18868;DHT22;9563;49.240;9.088;2022-08-19T06:36:30;20.90;99.90
18868;DHT22;9563;49.240;9.088;2022-08-19T06:39:00;20.90;99.90
18868;DHT22;9563;49.240;9.088;2022-08-19T06:41:29;20.90;99.90
18868;DHT22;9563;49.240;9.088;2022-08-19T06:43:57;20.80;99.90
18868;DHT22;9563;49.240;9.088;2022-08-19T06:46:24;20.90;99.90
18868;DHT22;9563;49.240;9.088;2022-08-19T06:48:52;20.90;99.90
18868;DHT22;9563;49.240;9.088;2022-08-19T06:51:21;20.90;99.90
18868;DHT22;9563;49.240;9.088;2022-08-19T06:53:50;20.90;99.90
18868;DHT22;9563;49.240;9.088;2022-08-19T06:56:19;20.90;99.90
18868;DHT22;9563;49.240;9.088;2022-08-19T06:58:48;21.00;99.90
18868;DHT22;9563;49.240;9.088;2022-08-19T07:01:19;21.10;99.90
18868;DHT22;9563;49.240;9.088;2022-08-19T07:03:46;21.10;99.90
18868;DHT22;9563;49.240;9.088;2022-08-19T07:06:15;21.10;99.90
18868;DHT22;9563;49.240;9.088;2022-08-19T07:08:44;21.20;99.90
18868;DHT22;9563;49.240;9.088;2022-08-19T07:11:13;21.20;99.90
18868;DHT22;9563;49.240;9.088;2022-08-19T07:13:41;21.20;99.90
18868;DHT22;9563;49.240;9.088;2022-08-19T07:16:13;21.30;99.90
18868;DHT22;9563;49.240;9.088;2022-08-19T07:18:40;21.40;99.90
18868;DHT22;9563;49.240;9.088;2022-08-19T07:21:11;21.50;99.90
18868;DHT22;9563;49.240;9.088;2022-08-19T07:23:38;21.50;99.90
18868;DHT22;9563;49.240;9.088;2022-08-19T07:26:08;21.60;99.90
18868;DHT22;9563;49.240;9.088;2022-08-19T07:28:35;21.70;99.90
18868;DHT22;9563;49.240;9.088;2022-08-19T07:31:05;21.70;99.90
18868;DHT22;9563;49.240;9.088;2022-08-19T07:33:34;21.90;99.90
18868;DHT22;9563;49.240;9.088;2022-08-19T07:36:03;21.90;99.90
18868;DHT22;9563;49.240;9.088;2022-08-19T07:38:31;22.10;99.90
18868;DHT22;9563;49.240;9.088;2022-08-19T07:40:58;22.20;99.90
18868;DHT22;9563;49.240;9.088;2022-08-19T07:43:25;22.20;99.90
18868;DHT22;9563;49.240;9.088;2022-08-19T07:45:52;22.30;99.90
18868;DHT22;9563;49.240;9.088;2022-08-19T07:48:21;22.40;99.90
18868;DHT22;9563;49.240;9.088;2022-08-19T07:50:52;22.50;99.90
18868;DHT22;9563;49.240;9.088;2022-08-19T07:53:19;22.70;99.90
18868;DHT22;9563;49.240;9.088;2022-08-19T07:55:46;22.70;99.90
18868;DHT22;9563;49.240;9.088;2022-08-19T07:58:16;22.80;99.90
18868;DHT22;9563;49.240;9.088;2022-08-19T08:00:44;22.80;99.90
18868;DHT22;9563;49.240;9.088;2022-08-19T08:03:13;22.90;99.90
18868;DHT22;9563;49.240;9.088;2022-08-19T08:05:40;23.00;99.90
18868;DHT22;9563;49.240;9.088;2022-08-19T08:08:26;23.00;99.90
18868;DHT22;9563;49.240;9.088;2022-08-19T08:11:12;23.10;99.90
18868;DHT22;9563;49.240;9.088;2022-08-19T08:13:39;23.10;99.90
18868;DHT22;9563;49.240;9.088;2022-08-19T08:16:06;23.20;99.90
18868;DHT22;9563;49.240;9.088;2022-08-19T08:18:34;23.30;99.90
18868;DHT22;9563;49.240;9.088;2022-08-19T08:21:07;23.40;99.90
18868;DHT22;9563;49.240;9.088;2022-08-19T08:23:35;23.40;99.90
18868;DHT22;9563;49.240;9.088;2022-08-19T08:26:02;23.40;99.90
18868;DHT22;9563;49.240;9.088;2022-08-19T08:28:30;23.50;99.90
18868;DHT22;9563;49.240;9.088;2022-08-19T08:30:58;23.50;99.90
18868;DHT22;9563;49.240;9.088;2022-08-19T08:33:27;23.30;99.90
18868;DHT22;9563;49.240;9.088;2022-08-19T08:35:55;23.30;99.90
18868;DHT22;9563;49.240;9.088;2022-08-19T08:38:22;23.30;99.90
18868;DHT22;9563;49.240;9.088;2022-08-19T08:40:55;23.30;99.90
18868;DHT22;9563;49.240;9.088;2022-08-19T08:43:34;23.30;99.90
18868;DHT22;9563;49.240;9.088;2022-08-19T08:46:04;23.40;99.90
18868;DHT22;9563;49.240;9.088;2022-08-19T08:48:37;23.40;99.90
18868;DHT22;9563;49.240;9.088;2022-08-19T08:51:10;23.40;99.90
18868;DHT22;9563;49.240;9.088;2022-08-19T08:53:38;23.50;99.90
18868;DHT22;9563;49.240;9.088;2022-08-19T08:56:09;23.60;99.90
18868;DHT22;9563;49.240;9.088;2022-08-19T08:58:46;23.60;99.90
18868;DHT22;9563;49.240;9.088;2022-08-19T09:01:15;23.60;99.90
18868;DHT22;9563;49.240;9.088;2022-08-19T09:03:43;23.60;99.90
18868;DHT22;9563;49.240;9.088;2022-08-19T09:06:14;23.60;99.90
18868;DHT22;9563;49.240;9.088;2022-08-19T09:08:49;23.60;99.90
18868;DHT22;9563;49.240;9.088;2022-08-19T09:11:34;23.60;99.90
18868;DHT22;9563;49.240;9.088;2022-08-19T09:14:10;23.60;99.90
18868;DHT22;9563;49.240;9.088;2022-08-19T09:16:40;23.60;99.90
18868;DHT22;9563;49.240;9.088;2022-08-19T09:19:08;23.60;99.90
18868;DHT22;9563;49.240;9.088;2022-08-19T09:21:36;23.60;99.90
18868;DHT22;9563;49.240;9.088;2022-08-19T09:24:04;23.60;99.90
18868;DHT22;9563;49.240;9.088;2022-08-19T09:26:33;23.70;99.90
18868;DHT22;9563;49.240;9.088;2022-08-19T09:29:00;23.70;99.90
18868;DHT22;9563;49.240;9.088;2022-08-19T09:31:31;23.70;99.90
18868;DHT22;9563;49.240;9.088;2022-08-19T09:33:59;23.60;99.90
18868;DHT22;9563;49.240;9.088;2022-08-19T09:36:27;23.60;99.90
18868;DHT22;9563;49.240;9.088;2022-08-19T09:38:58;23.70;99.90
18868;DHT22;9563;49.240;9.088;2022-08-19T09:41:27;23.70;99.90
18868;DHT22;9563;49.240;9.088;2022-08-19T09:43:57;23.80;99.90
18868;DHT22;9563;49.240;9.088;2022-08-19T09:46:28;23.90;99.90
18868;DHT22;9563;49.240;9.088;2022-08-19T09:48:59;24.00;99.90
18868;DHT22;9563;49.240;9.088;2022-08-19T09:51:27;24.20;99.90
18868;DHT22;9563;49.240;9.088;2022-08-19T09:53:58;24.30;99.90
18868;DHT22;9563;49.240;9.088;2022-08-19T09:56:26;24.40;99.90
18868;DHT22;9563;49.240;9.088;2022-08-19T09:58:57;24.60;99.90
18868;DHT22;9563;49.240;9.088;2022-08-19T10:01:26;24.80;99.90
18868;DHT22;9563;49.240;9.088;2022-08-19T10:03:56;24.80;99.90
18868;DHT22;9563;49.240;9.088;2022-08-19T10:06:27;24.80;99.90
18868;DHT22;9563;49.240;9.088;2022-08-19T10:08:57;24.80;99.90
18868;DHT22;9563;49.240;9.088;2022-08-19T10:11:24;25.00;99.90
18868;DHT22;9563;49.240;9.088;2022-08-19T10:13:52;25.10;99.90
18868;DHT22;9563;49.240;9.088;2022-08-19T10:16:22;25.30;99.90
18868;DHT22;9563;49.240;9.088;2022-08-19T10:18:49;25.30;99.90
18868;DHT22;9563;49.240;9.088;2022-08-19T10:21:19;25.40;99.90
18868;DHT22;9563;49.240;9.088;2022-08-19T10:23:48;25.40;99.90
18868;DHT22;9563;49.240;9.088;2022-08-19T10:26:17;25.40;99.90
18868;DHT22;9563;49.240;9.088;2022-08-19T10:28:45;25.30;99.90
18868;DHT22;9563;49.240;9.088;2022-08-19T10:31:15;25.30;99.90
18868;DHT22;9563;49.240;9.088;2022-08-19T10:33:44;25.30;99.90
18868;DHT22;9563;49.240;9.088;2022-08-19T10:36:14;25.50;99.90
18868;DHT22;9563;49.240;9.088;2022-08-19T10:38:43;25.70;99.90
18868;DHT22;9563;49.240;9.088;2022-08-19T10:41:12;25.80;99.90
18868;DHT22;9563;49.240;9.088;2022-08-19T10:43:40;26.10;99.90
18868;DHT22;9563;49.240;9.088;2022-08-19T10:46:08;26.50;99.90
18868;DHT22;9563;49.240;9.088;2022-08-19T10:48:36;26.70;99.90
18868;DHT22;9563;49.240;9.088;2022-08-19T10:51:05;27.10;99.90
18868;DHT22;9563;49.240;9.088;2022-08-19T10:53:50;27.20;99.90
18868;DHT22;9563;49.240;9.088;2022-08-19T10:56:18;27.10;99.90
18868;DHT22;9563;49.240;9.088;2022-08-19T10:59:04;27.00;99.90
18868;DHT22;9563;49.240;9.088;2022-08-19T11:01:32;26.90;99.90
18868;DHT22;9563;49.240;9.088;2022-08-19T11:04:00;26.90;99.90
18868;DHT22;9563;49.240;9.088;2022-08-19T11:06:31;26.80;99.90
18868;DHT22;9563;49.240;9.088;2022-08-19T11:08:58;26.70;99.90
18868;DHT22;9563;49.240;9.088;2022-08-19T11:11:26;26.50;99.90
18868;DHT22;9563;49.240;9.088;2022-08-19T11:13:53;26.30;99.90
18868;DHT22;9563;49.240;9.088;2022-08-19T11:16:22;26.40;99.90
18868;DHT22;9563;49.240;9.088;2022-08-19T11:18:51;26.50;99.90
18868;DHT22;9563;49.240;9.088;2022-08-19T11:21:23;26.50;99.90
18868;DHT22;9563;49.240;9.088;2022-08-19T11:23:54;26.60;99.90
18868;DHT22;9563;49.240;9.088;2022-08-19T11:26:23;26.50;99.90
18868;DHT22;9563;49.240;9.088;2022-08-19T11:28:51;26.60;99.90
18868;DHT22;9563;49.240;9.088;2022-08-19T11:31:22;26.60;99.90
18868;DHT22;9563;49.240;9.088;2022-08-19T11:33:49;26.30;99.90
18868;DHT22;9563;49.240;9.088;2022-08-19T11:36:19;26.20;99.90
18868;DHT22;9563;49.240;9.088;2022-08-19T11:38:48;26.00;99.90
18868;DHT22;9563;49.240;9.088;2022-08-19T11:41:19;25.80;99.90
18868;DHT22;9563;49.240;9.088;2022-08-19T11:43:48;25.80;99.90
18868;DHT22;9563;49.240;9.088;2022-08-19T11:46:16;26.00;99.90
18868;DHT22;9563;49.240;9.088;2022-08-19T11:48:43;26.10;99.90
18868;DHT22;9563;49.240;9.088;2022-08-19T11:51:12;26.30;99.90
18868;DHT22;9563;49.240;9.088;2022-08-19T11:53:40;26.60;99.90
18868;DHT22;9563;49.240;9.088;2022-08-19T11:56:08;26.80;99.90
18868;DHT22;9563;49.240;9.088;2022-08-19T11:58:39;26.90;99.90
18868;DHT22;9563;49.240;9.088;2022-08-19T12:01:08;27.00;99.90
18868;DHT22;9563;49.240;9.088;2022-08-19T12:03:37;27.20;99.90
18868;DHT22;9563;49.240;9.088;2022-08-19T12:06:05;27.40;99.90
18868;DHT22;9563;49.240;9.088;2022-08-19T12:08:33;27.40;99.90
18868;DHT22;9563;49.240;9.088;2022-08-19T12:11:00;27.30;99.90
18868;DHT22;9563;49.240;9.088;2022-08-19T12:13:28;27.20;99.90
18868;DHT22;9563;49.240;9.088;2022-08-19T12:15:57;27.10;99.90
18868;DHT22;9563;49.240;9.088;2022-08-19T12:18:25;26.70;99.90
18868;DHT22;9563;49.240;9.088;2022-08-19T12:20:53;26.50;99.90
18868;DHT22;9563;49.240;9.088;2022-08-19T12:23:21;26.30;99.90
18868;DHT22;9563;49.240;9.088;2022-08-19T12:25:49;26.10;99.90
18868;DHT22;9563;49.240;9.088;2022-08-19T12:28:17;26.00;99.90
18868;DHT22;9563;49.240;9.088;2022-08-19T12:30:44;25.90;99.90
18868;DHT22;9563;49.240;9.088;2022-08-19T12:33:13;25.80;99.90
18868;DHT22;9563;49.240;9.088;2022-08-19T12:35:41;25.70;99.90
18868;DHT22;9563;49.240;9.088;2022-08-19T12:38:09;25.70;99.90
18868;DHT22;9563;49.240;9.088;2022-08-19T12:40:36;25.80;99.90
18868;DHT22;9563;49.240;9.088;2022-08-19T12:43:05;25.80;99.90
18868;DHT22;9563;49.240;9.088;2022-08-19T12:45:33;25.90;99.90
18868;DHT22;9563;49.240;9.088;2022-08-19T12:48:01;26.00;99.90
18868;DHT22;9563;49.240;9.088;2022-08-19T12:50:30;26.10;99.90
18868;DHT22;9563;49.240;9.088;2022-08-19T12:52:57;26.30;99.90
18868;DHT22;9563;49.240;9.088;2022-08-19T12:55:24;26.40;99.90
18868;DHT22;9563;49.240;9.088;2022-08-19T12:57:54;26.50;99.90
18868;DHT22;9563;49.240;9.088;2022-08-19T13:00:22;26.50;99.90
18868;DHT22;9563;49.240;9.088;2022-08-19T13:02:51;26.40;99.90
18868;DHT22;9563;49.240;9.088;2022-08-19T13:05:22;26.40;99.90
18868;DHT22;9563;49.240;9.088;2022-08-19T13:07:52;26.30;99.90
18868;DHT22;9563;49.240;9.088;2022-08-19T13:10:22;26.30;99.90
18868;DHT22;9563;49.240;9.088;2022-08-19T13:12:51;26.30;99.90
18868;DHT22;9563;49.240;9.088;2022-08-19T13:15:19;26.20;99.90
18868;DHT22;9563;49.240;9.088;2022-08-19T13:17:48;26.00;99.90
18868;DHT22;9563;49.240;9.088;2022-08-19T13:20:16;26.00;99.90
18868;DHT22;9563;49.240;9.088;2022-08-19T13:22:44;25.90;99.90
18868;DHT22;9563;49.240;9.088;2022-08-19T13:25:14;26.00;99.90
18868;DHT22;9563;49.240;9.088;2022-08-19T13:27:43;26.10;99.90
18868;DHT22;9563;49.240;9.088;2022-08-19T13:30:12;26.20;99.90
18868;DHT22;9563;49.240;9.088;2022-08-19T13:32:56;26.50;99.90
18868;DHT22;9563;49.240;9.088;2022-08-19T13:35:41;26.70;99.90
18868;DHT22;9563;49.240;9.088;2022-08-19T13:38:09;27.30;99.90
18868;DHT22;9563;49.240;9.088;2022-08-19T13:40:39;27.40;99.90
18868;DHT22;9563;49.240;9.088;2022-08-19T13:43:06;27.60;99.90
18868;DHT22;9563;49.240;9.088;2022-08-19T13:45:34;27.80;99.90
18868;DHT22;9563;49.240;9.088;2022-08-19T13:48:03;27.80;99.90
18868;DHT22;9563;49.240;9.088;2022-08-19T13:50:32;28.10;99.90
18868;DHT22;9563;49.240;9.088;2022-08-19T13:53:00;28.40;99.90
18868;DHT22;9563;49.240;9.088;2022-08-19T13:55:27;28.80;99.90
18868;DHT22;9563;49.240;9.088;2022-08-19T13:57:57;29.10;98.00
18868;DHT22;9563;49.240;9.088;2022-08-19T14:00:26;29.00;97.90
18868;DHT22;9563;49.240;9.088;2022-08-19T14:02:55;28.80;98.10
18868;DHT22;9563;49.240;9.088;2022-08-19T14:05:23;28.50;98.60
18868;DHT22;9563;49.240;9.088;2022-08-19T14:07:50;28.20;98.60
18868;DHT22;9563;49.240;9.088;2022-08-19T14:10:18;27.80;98.70
18868;DHT22;9563;49.240;9.088;2022-08-19T14:12:46;27.60;99.40
18868;DHT22;9563;49.240;9.088;2022-08-19T14:15:15;27.50;99.90
18868;DHT22;9563;49.240;9.088;2022-08-19T14:17:43;27.50;99.90
18868;DHT22;9563;49.240;9.088;2022-08-19T14:20:13;27.30;99.90
18868;DHT22;9563;49.240;9.088;2022-08-19T14:22:42;27.10;99.90
18868;DHT22;9563;49.240;9.088;2022-08-19T14:25:11;27.00;99.50
18868;DHT22;9563;49.240;9.088;2022-08-19T14:27:40;26.80;99.90
18868;DHT22;9563;49.240;9.088;2022-08-19T14:30:08;26.80;99.90
18868;DHT22;9563;49.240;9.088;2022-08-19T14:32:37;26.60;99.00
18868;DHT22;9563;49.240;9.088;2022-08-19T14:35:05;26.50;99.30
18868;DHT22;9563;49.240;9.088;2022-08-19T14:37:33;26.50;99.30
18868;DHT22;9563;49.240;9.088;2022-08-19T14:40:01;26.50;99.90
18868;DHT22;9563;49.240;9.088;2022-08-19T14:42:27;26.40;99.90
18868;DHT22;9563;49.240;9.088;2022-08-19T14:44:57;26.40;98.40
18868;DHT22;9563;49.240;9.088;2022-08-19T14:47:25;26.30;97.60
18868;DHT22;9563;49.240;9.088;2022-08-19T14:49:54;26.40;98.80
18868;DHT22;9563;49.240;9.088;2022-08-19T14:52:21;26.40;98.40
18868;DHT22;9563;49.240;9.088;2022-08-19T14:54:48;26.50;98.50
18868;DHT22;9563;49.240;9.088;2022-08-19T14:57:15;26.50;99.10
18868;DHT22;9563;49.240;9.088;2022-08-19T14:59:42;26.50;98.80
18868;DHT22;9563;49.240;9.088;2022-08-19T15:02:10;26.60;98.40
18868;DHT22;9563;49.240;9.088;2022-08-19T15:04:37;26.70;97.80
18868;DHT22;9563;49.240;9.088;2022-08-19T15:07:05;26.80;98.30
18868;DHT22;9563;49.240;9.088;2022-08-19T15:09:33;26.90;97.10
18868;DHT22;9563;49.240;9.088;2022-08-19T15:12:00;27.00;97.00
18868;DHT22;9563;49.240;9.088;2022-08-19T15:14:28;27.00;97.00
18868;DHT22;9563;49.240;9.088;2022-08-19T15:17:00;27.00;95.80
18868;DHT22;9563;49.240;9.088;2022-08-19T15:19:28;27.00;96.00
18868;DHT22;9563;49.240;9.088;2022-08-19T15:21:55;27.00;96.30
18868;DHT22;9563;49.240;9.088;2022-08-19T15:24:24;27.10;96.50
18868;DHT22;9563;49.240;9.088;2022-08-19T15:26:52;27.00;96.40
18868;DHT22;9563;49.240;9.088;2022-08-19T15:29:21;27.10;96.10
18868;DHT22;9563;49.240;9.088;2022-08-19T15:31:50;27.00;95.70
18868;DHT22;9563;49.240;9.088;2022-08-19T15:34:17;27.10;96.30
18868;DHT22;9563;49.240;9.088;2022-08-19T15:36:44;27.10;96.10
18868;DHT22;9563;49.240;9.088;2022-08-19T15:39:11;27.00;95.20
18868;DHT22;9563;49.240;9.088;2022-08-19T15:41:39;27.00;95.30
18868;DHT22;9563;49.240;9.088;2022-08-19T15:44:09;27.00;95.60
18868;DHT22;9563;49.240;9.088;2022-08-19T15:46:40;27.00;95.10
18868;DHT22;9563;49.240;9.088;2022-08-19T15:49:08;27.00;95.50
18868;DHT22;9563;49.240;9.088;2022-08-19T15:51:37;27.10;95.00
18868;DHT22;9563;49.240;9.088;2022-08-19T15:54:06;27.00;94.60
18868;DHT22;9563;49.240;9.088;2022-08-19T15:56:34;27.00;94.80